Time;durP1;ratioP1;P1;durP2;ratioP2;P2;SDS_P1;SDS_P2;PMS_P1;PMS_P2;Temp;Humidity;BMP_temperature;BMP_pressure;BME280_temperature;BME280_humidity;BME280_pressure;Samples;Min_cycle;Max_cycle;Signal;HPM_P1;HPM_P2
2023/08/20 00:02:19;;;;;;;5.63;2.67;;;;;;;;;;5033608;28;20056;-86
2023/08/20 00:04:48;;;;;;;9.85;3.03;;;;;;;;;;5032269;28;20060;-86
2023/08/20 00:07:15;;;;;;;6.55;2.60;;;;;;;;;;5008552;28;20033;-85
2023/08/20 00:09:41;;;;;;;6.55;2.67;;;;;;;;;;5024545;28;20121;-85
2023/08/20 00:12:07;;;;;;;7.45;2.78;;;;;;;;;;5019664;28;20065;-85
2023/08/20 00:14:53;;;;;;;9.15;3.15;;;;;;;;;;5024098;28;20034;-85
2023/08/20 00:17:19;;;;;;;6.15;2.75;;;;;;;;;;5022406;28;20107;-85
2023/08/20 00:19:45;;;;;;;11.23;3.08;;;;;;;;;;5027538;28;20417;-86
2023/08/20 00:22:10;;;;;;;7.07;2.67;;;;;;;;;;5022350;28;20045;-85
2023/08/20 00:24:36;;;;;;;8.23;2.60;;;;;;;;;;5019843;28;20118;-86
2023/08/20 00:27:02;;;;;;;8.15;2.67;;;;;;;;;;5014764;28;20041;-85
2023/08/20 00:29:27;;;;;;;6.15;2.63;;;;;;;;;;5029938;28;20041;-85
2023/08/20 00:31:53;;;;;;;9.82;2.75;;;;;;;;;;5020170;28;20029;-85
2023/08/20 00:34:18;;;;;;;7.53;2.80;;;;;;;;;;5025412;28;20091;-85
2023/08/20 00:36:44;;;;;;;8.52;2.72;;;;;;;;;;5019879;28;20133;-85
2023/08/20 00:39:09;;;;;;;5.90;2.75;;;;;;;;;;5017616;28;20129;-85
2023/08/20 00:41:35;;;;;;;6.32;2.63;;;;;;;;;;5015228;28;20040;-85
2023/08/20 00:44:00;;;;;;;7.10;2.90;;;;;;;;;;4999016;28;20053;-85
2023/08/20 00:46:26;;;;;;;4.47;2.45;;;;;;;;;;5011857;28;20638;-86
2023/08/20 00:48:52;;;;;;;5.07;2.60;;;;;;;;;;4990144;28;20145;-84
2023/08/20 00:51:17;;;;;;;6.80;2.88;;;;;;;;;;5012115;28;20025;-85
2023/08/20 00:53:44;;;;;;;7.80;2.85;;;;;;;;;;5013076;28;20040;-85
2023/08/20 00:56:10;;;;;;;10.23;3.15;;;;;;;;;;5021822;28;20042;-85
2023/08/20 00:58:37;;;;;;;10.82;3.15;;;;;;;;;;5024963;28;20125;-86
2023/08/20 01:01:03;;;;;;;8.30;2.92;;;;;;;;;;5038703;28;20060;-86
2023/08/20 01:03:28;;;;;;;8.88;2.60;;;;;;;;;;5029925;28;20033;-83
2023/08/20 01:06:07;;;;;;;6.28;2.83;;;;;;;;;;5028716;28;20405;-86
2023/08/20 01:08:39;;;;;;;6.15;2.50;;;;;;;;;;5028153;28;20091;-85
2023/08/20 01:11:17;;;;;;;6.32;2.85;;;;;;;;;;5029121;28;20031;-86
2023/08/20 01:13:42;;;;;;;7.32;2.85;;;;;;;;;;5032556;28;20030;-85
2023/08/20 01:16:08;;;;;;;8.18;2.78;;;;;;;;;;5022202;28;20074;-85
2023/08/20 01:18:33;;;;;;;5.00;2.83;;;;;;;;;;5027930;28;20121;-85
2023/08/20 01:21:05;;;;;;;9.27;3.00;;;;;;;;;;5026809;28;20053;-85
2023/08/20 01:24:16;;;;;;;6.60;2.65;;;;;;;;;;5025285;28;20037;-86
2023/08/20 01:27:10;;;;;;;8.45;2.90;;;;;;;;;;5033854;28;20080;-85
2023/08/20 01:29:39;;;;;;;6.65;2.63;;;;;;;;;;5030754;28;20022;-86
2023/08/20 01:32:05;;;;;;;13.98;3.20;;;;;;;;;;5016605;28;20033;-86
2023/08/20 01:34:31;;;;;;;5.68;2.72;;;;;;;;;;5022071;28;20033;-85
2023/08/20 01:36:57;;;;;;;7.03;2.67;;;;;;;;;;5023708;28;20038;-85
2023/08/20 01:39:23;;;;;;;10.63;3.20;;;;;;;;;;5013042;28;20045;-85
2023/08/20 01:41:48;;;;;;;11.13;2.90;;;;;;;;;;5011398;28;20037;-85
2023/08/20 01:44:14;;;;;;;6.68;2.60;;;;;;;;;;5013265;28;20088;-85
2023/08/20 01:46:39;;;;;;;7.35;2.70;;;;;;;;;;5031778;28;20044;-85
2023/08/20 01:49:05;;;;;;;9.70;3.10;;;;;;;;;;5006750;28;20060;-85
2023/08/20 01:51:30;;;;;;;7.65;2.60;;;;;;;;;;5030310;28;20045;-85
2023/08/20 01:53:56;;;;;;;6.22;2.60;;;;;;;;;;5027151;28;20049;-85
2023/08/20 01:56:22;;;;;;;6.90;2.70;;;;;;;;;;5020456;28;20097;-85
2023/08/20 01:58:48;;;;;;;6.88;3.10;;;;;;;;;;5025333;28;20095;-85
2023/08/20 02:01:14;;;;;;;8.40;2.70;;;;;;;;;;5020694;28;20097;-86
2023/08/20 02:03:39;;;;;;;7.88;3.30;;;;;;;;;;5027053;28;20045;-86
2023/08/20 02:06:05;;;;;;;5.22;2.80;;;;;;;;;;5020646;28;20057;-85
2023/08/20 02:08:31;;;;;;;8.13;2.97;;;;;;;;;;5039843;28;20041;-86
2023/08/20 02:11:01;;;;;;;8.93;3.10;;;;;;;;;;5034795;28;20041;-85
2023/08/20 02:13:26;;;;;;;8.10;2.80;;;;;;;;;;5010730;28;20042;-86
2023/08/20 02:16:03;;;;;;;6.38;2.88;;;;;;;;;;5021262;28;20061;-86
2023/08/20 02:18:29;;;;;;;7.53;2.90;;;;;;;;;;5009500;28;20491;-86
2023/08/20 02:20:54;;;;;;;9.52;2.70;;;;;;;;;;5030809;28;20092;-85
2023/08/20 02:23:20;;;;;;;7.55;2.90;;;;;;;;;;5026747;28;20124;-85
2023/08/20 02:25:46;;;;;;;6.53;2.72;;;;;;;;;;5029863;28;20033;-86
2023/08/20 02:28:12;;;;;;;9.52;2.78;;;;;;;;;;5023401;28;20037;-85
2023/08/20 02:30:45;;;;;;;6.63;2.90;;;;;;;;;;5028668;28;20056;-85
2023/08/20 02:33:12;;;;;;;6.65;2.90;;;;;;;;;;5037279;28;20038;-86
2023/08/20 02:35:38;;;;;;;7.95;2.95;;;;;;;;;;5020507;28;20029;-85
2023/08/20 02:38:04;;;;;;;7.25;3.00;;;;;;;;;;5009794;28;20037;-86
2023/08/20 02:40:32;;;;;;;7.35;2.90;;;;;;;;;;5034536;28;20033;-85
2023/08/20 02:42:58;;;;;;;8.73;3.00;;;;;;;;;;5036745;28;20049;-85
2023/08/20 02:45:23;;;;;;;8.60;2.90;;;;;;;;;;5023860;28;20096;-85
2023/08/20 02:47:50;;;;;;;7.22;2.67;;;;;;;;;;5010843;28;20045;-85
2023/08/20 02:50:17;;;;;;;8.98;2.90;;;;;;;;;;5009245;28;20036;-86
2023/08/20 02:52:45;;;;;;;6.85;2.75;;;;;;;;;;5014473;28;20132;-85
2023/08/20 02:55:11;;;;;;;10.25;2.90;;;;;;;;;;5024636;28;20048;-85
2023/08/20 02:57:36;;;;;;;5.90;2.92;;;;;;;;;;5033459;28;20034;-85
2023/08/20 03:00:02;;;;;;;9.23;3.30;;;;;;;;;;5017246;28;20497;-85
2023/08/20 03:02:28;;;;;;;10.13;3.58;;;;;;;;;;5016920;28;20030;-85
2023/08/20 03:04:55;;;;;;;6.93;3.08;;;;;;;;;;5022168;28;20030;-85
2023/08/20 03:07:22;;;;;;;7.53;2.92;;;;;;;;;;5023357;28;20037;-85
2023/08/20 03:09:48;;;;;;;10.25;3.00;;;;;;;;;;5013818;28;20084;-85
2023/08/20 03:12:13;;;;;;;8.10;3.05;;;;;;;;;;5009808;28;20489;-85
2023/08/20 03:14:39;;;;;;;5.55;2.97;;;;;;;;;;5023990;28;20073;-85
2023/08/20 03:17:04;;;;;;;6.82;3.20;;;;;;;;;;5037635;28;20037;-85
2023/08/20 03:19:33;;;;;;;12.00;3.67;;;;;;;;;;5033357;28;20030;-85
2023/08/20 03:21:58;;;;;;;10.90;3.30;;;;;;;;;;5032766;28;20482;-85
2023/08/20 03:24:24;;;;;;;7.80;3.00;;;;;;;;;;5028103;28;20032;-85
2023/08/20 03:26:49;;;;;;;10.85;2.88;;;;;;;;;;5031041;28;20033;-85
2023/08/20 03:29:15;;;;;;;15.57;3.55;;;;;;;;;;5034502;28;20057;-85
2023/08/20 03:31:40;;;;;;;7.15;3.30;;;;;;;;;;5026924;28;20097;-85
2023/08/20 03:34:08;;;;;;;12.40;3.60;;;;;;;;;;5027667;28;20102;-86
2023/08/20 03:36:34;;;;;;;6.10;2.83;;;;;;;;;;5015246;28;20516;-86
2023/08/20 03:38:59;;;;;;;9.13;3.30;;;;;;;;;;5025094;28;20257;-86
2023/08/20 03:41:25;;;;;;;8.25;3.30;;;;;;;;;;5027445;28;20065;-85
2023/08/20 03:43:50;;;;;;;6.15;3.13;;;;;;;;;;5026223;28;20106;-86
2023/08/20 03:46:16;;;;;;;7.00;3.58;;;;;;;;;;5025306;28;20128;-85
2023/08/20 03:48:42;;;;;;;7.68;2.80;;;;;;;;;;5012858;28;20053;-85
2023/08/20 03:51:08;;;;;;;8.30;3.20;;;;;;;;;;5020124;28;20032;-85
2023/08/20 03:53:33;;;;;;;7.00;3.08;;;;;;;;;;5031572;28;20048;-85
2023/08/20 03:55:59;;;;;;;5.85;3.00;;;;;;;;;;5021539;28;20124;-85
2023/08/20 03:58:24;;;;;;;8.68;3.17;;;;;;;;;;5019789;28;20030;-87
2023/08/20 04:00:50;;;;;;;6.22;3.30;;;;;;;;;;5012866;28;20026;-86
2023/08/20 04:03:19;;;;;;;10.68;3.20;;;;;;;;;;5030220;28;20030;-85
2023/08/20 04:05:45;;;;;;;7.03;3.33;;;;;;;;;;5035885;28;20037;-85
2023/08/20 04:08:10;;;;;;;8.65;3.50;;;;;;;;;;5031742;28;20044;-85
2023/08/20 04:10:42;;;;;;;7.75;3.58;;;;;;;;;;5012764;28;20084;-86
2023/08/20 04:13:08;;;;;;;11.70;3.60;;;;;;;;;;5041531;28;20060;-85
2023/08/20 04:15:33;;;;;;;6.03;3.30;;;;;;;;;;5037796;28;20030;-85
2023/08/20 04:17:59;;;;;;;6.85;3.45;;;;;;;;;;5016459;28;20040;-85
2023/08/20 04:20:24;;;;;;;9.25;3.30;;;;;;;;;;5015312;28;20033;-85
2023/08/20 04:22:50;;;;;;;6.55;3.40;;;;;;;;;;5014148;28;20033;-85
2023/08/20 04:25:15;;;;;;;7.90;3.10;;;;;;;;;;5020305;28;20100;-85
2023/08/20 04:27:41;;;;;;;9.25;3.28;;;;;;;;;;5021837;28;20061;-84
2023/08/20 04:30:07;;;;;;;7.07;2.97;;;;;;;;;;5021733;28;20083;-85
2023/08/20 04:32:33;;;;;;;8.05;3.75;;;;;;;;;;5016943;28;20068;-85
2023/08/20 04:34:59;;;;;;;9.50;3.20;;;;;;;;;;5019882;28;20088;-85
2023/08/20 04:37:25;;;;;;;7.40;2.95;;;;;;;;;;5028823;28;20751;-85
2023/08/20 04:39:51;;;;;;;7.82;3.45;;;;;;;;;;5031720;28;20037;-85
2023/08/20 04:42:17;;;;;;;8.05;3.30;;;;;;;;;;5030571;28;20045;-85
2023/08/20 04:44:44;;;;;;;9.57;3.50;;;;;;;;;;5020669;28;20041;-84
2023/08/20 04:47:12;;;;;;;11.50;3.33;;;;;;;;;;5019575;28;20037;-84
2023/08/20 04:49:38;;;;;;;10.07;3.10;;;;;;;;;;5020451;28;20025;-84
2023/08/20 04:52:04;;;;;;;8.07;3.50;;;;;;;;;;5021127;28;20037;-84
2023/08/20 04:54:30;;;;;;;6.75;2.88;;;;;;;;;;5035026;28;20029;-84
2023/08/20 04:56:55;;;;;;;10.13;3.20;;;;;;;;;;5019813;28;20033;-85
2023/08/20 04:59:23;;;;;;;11.70;3.15;;;;;;;;;;5019762;28;20029;-86
2023/08/20 05:02:18;;;;;;;9.77;3.45;;;;;;;;;;5018613;28;20041;-85
2023/08/20 05:04:50;;;;;;;8.07;3.22;;;;;;;;;;4990148;28;20042;-85
2023/08/20 05:07:16;;;;;;;11.75;3.10;;;;;;;;;;5018529;28;20034;-86
2023/08/20 05:09:41;;;;;;;9.80;3.50;;;;;;;;;;5008974;28;20527;-85
2023/08/20 05:12:07;;;;;;;6.80;2.95;;;;;;;;;;5023375;28;20030;-85
2023/08/20 05:14:33;;;;;;;8.65;3.13;;;;;;;;;;5003473;28;20036;-84
2023/08/20 05:16:59;;;;;;;4.45;3.10;;;;;;;;;;5019456;28;20038;-84
2023/08/20 05:19:25;;;;;;;6.63;3.17;;;;;;;;;;5010955;28;20093;-84
2023/08/20 05:21:51;;;;;;;8.63;3.17;;;;;;;;;;5021580;28;20069;-85
2023/08/20 05:24:17;;;;;;;7.20;3.10;;;;;;;;;;5025171;28;20509;-85
2023/08/20 05:26:42;;;;;;;7.15;3.30;;;;;;;;;;5011401;28;20037;-85
2023/08/20 05:29:08;;;;;;;8.30;3.20;;;;;;;;;;5010844;28;20033;-84
2023/08/20 05:31:33;;;;;;;5.97;3.13;;;;;;;;;;5021380;28;20455;-84
2023/08/20 05:34:00;;;;;;;7.50;3.63;;;;;;;;;;5013970;28;20037;-84
2023/08/20 05:36:26;;;;;;;9.98;3.60;;;;;;;;;;5013495;28;20060;-84
2023/08/20 05:38:51;;;;;;;6.80;3.53;;;;;;;;;;5025310;28;20476;-84
2023/08/20 05:41:17;;;;;;;6.90;3.55;;;;;;;;;;4986391;28;20093;-85
2023/08/20 05:43:42;;;;;;;10.60;4.07;;;;;;;;;;5007873;28;20013;-86
2023/08/20 05:46:08;;;;;;;7.53;3.70;;;;;;;;;;5020347;28;20041;-85
2023/08/20 05:48:33;;;;;;;7.43;3.05;;;;;;;;;;5031766;28;20017;-86
2023/08/20 05:50:59;;;;;;;10.38;3.67;;;;;;;;;;5009205;28;20057;-86
2023/08/20 05:53:25;;;;;;;10.40;3.60;;;;;;;;;;5041556;28;20025;-85
2023/08/20 05:55:50;;;;;;;8.13;3.47;;;;;;;;;;5024227;28;20127;-86
2023/08/20 05:58:16;;;;;;;8.15;3.38;;;;;;;;;;5022164;28;20037;-85
2023/08/20 06:00:42;;;;;;;6.60;3.42;;;;;;;;;;5021789;28;20038;-85
2023/08/20 06:03:07;;;;;;;8.50;3.20;;;;;;;;;;5021896;28;20081;-86
2023/08/20 06:05:34;;;;;;;9.38;3.40;;;;;;;;;;5015512;28;20037;-85
2023/08/20 06:08:00;;;;;;;6.93;3.45;;;;;;;;;;5023831;28;20072;-85
2023/08/20 06:10:26;;;;;;;11.02;3.83;;;;;;;;;;5032987;28;20472;-85
2023/08/20 06:12:52;;;;;;;6.47;3.35;;;;;;;;;;5031971;28;20046;-85
2023/08/20 06:15:17;;;;;;;5.13;3.05;;;;;;;;;;5027126;28;20030;-85
2023/08/20 06:17:43;;;;;;;6.05;3.17;;;;;;;;;;5026838;28;20033;-85
2023/08/20 06:20:11;;;;;;;7.68;3.53;;;;;;;;;;5025698;28;20029;-86
2023/08/20 06:22:37;;;;;;;6.78;3.30;;;;;;;;;;5030992;28;20084;-85
2023/08/20 06:25:03;;;;;;;9.52;3.42;;;;;;;;;;5025187;28;20033;-86
2023/08/20 06:27:28;;;;;;;7.38;3.30;;;;;;;;;;5024140;28;20034;-85
2023/08/20 06:29:54;;;;;;;6.18;3.40;;;;;;;;;;5023430;28;20041;-85
2023/08/20 06:32:19;;;;;;;7.88;3.20;;;;;;;;;;5026946;28;20493;-86
2023/08/20 06:34:45;;;;;;;7.93;3.42;;;;;;;;;;5030060;28;20041;-85
2023/08/20 06:37:10;;;;;;;8.82;3.42;;;;;;;;;;5028249;28;20064;-86
2023/08/20 06:39:36;;;;;;;6.65;3.45;;;;;;;;;;5024068;28;20122;-85
2023/08/20 06:42:02;;;;;;;10.75;3.30;;;;;;;;;;5023978;28;20077;-85
2023/08/20 06:44:27;;;;;;;9.20;3.40;;;;;;;;;;5034393;28;20029;-85
2023/08/20 06:46:53;;;;;;;7.00;3.30;;;;;;;;;;5031010;28;20041;-85
2023/08/20 06:49:18;;;;;;;8.43;3.38;;;;;;;;;;5026413;28;20474;-85
2023/08/20 06:51:44;;;;;;;7.78;3.30;;;;;;;;;;5028395;28;20034;-85
2023/08/20 06:54:09;;;;;;;9.27;3.60;;;;;;;;;;5018735;28;20038;-85
2023/08/20 06:56:35;;;;;;;11.45;3.80;;;;;;;;;;5024769;28;20049;-84
2023/08/20 06:59:01;;;;;;;10.75;3.42;;;;;;;;;;5018004;28;20041;-85
2023/08/20 07:01:29;;;;;;;12.15;3.33;;;;;;;;;;5022696;28;20482;-85
2023/08/20 07:03:55;;;;;;;8.50;3.50;;;;;;;;;;5018356;28;20107;-84
2023/08/20 07:06:20;;;;;;;8.55;3.20;;;;;;;;;;5022975;28;20041;-86
2023/08/20 07:08:46;;;;;;;9.23;3.42;;;;;;;;;;5028689;28;20040;-85
2023/08/20 07:11:11;;;;;;;8.88;3.70;;;;;;;;;;5024408;28;20045;-85
2023/08/20 07:13:37;;;;;;;7.38;3.78;;;;;;;;;;5006789;28;20045;-85
2023/08/20 07:16:03;;;;;;;6.88;3.45;;;;;;;;;;5019357;28;20044;-86
2023/08/20 07:18:28;;;;;;;8.25;3.50;;;;;;;;;;5031391;28;20075;-85
2023/08/20 07:20:55;;;;;;;12.25;3.65;;;;;;;;;;5012381;28;20030;-86
2023/08/20 07:23:21;;;;;;;8.65;3.47;;;;;;;;;;5020251;28;20038;-85
2023/08/20 07:25:46;;;;;;;7.10;3.42;;;;;;;;;;5020466;28;20042;-87
2023/08/20 07:28:12;;;;;;;8.10;3.70;;;;;;;;;;5017731;28;20041;-82
2023/08/20 07:30:38;;;;;;;10.45;3.80;;;;;;;;;;5023141;28;20039;-85
2023/08/20 07:33:06;;;;;;;7.63;3.35;;;;;;;;;;5026360;28;20037;-86
2023/08/20 07:35:31;;;;;;;9.80;3.80;;;;;;;;;;5021313;28;20065;-85
2023/08/20 07:37:57;;;;;;;7.55;3.83;;;;;;;;;;5016406;28;20401;-85
2023/08/20 07:40:22;;;;;;;8.50;3.40;;;;;;;;;;5020194;28;20032;-85
2023/08/20 07:42:50;;;;;;;10.90;3.80;;;;;;;;;;5013055;28;20517;-85
2023/08/20 07:45:15;;;;;;;8.02;3.42;;;;;;;;;;5010394;28;20088;-85
2023/08/20 07:47:41;;;;;;;7.55;3.30;;;;;;;;;;5018838;28;20128;-85
2023/08/20 07:50:06;;;;;;;7.50;3.53;;;;;;;;;;5026349;28;20029;-85
2023/08/20 07:52:32;;;;;;;8.68;3.47;;;;;;;;;;5016596;28;20033;-85
2023/08/20 07:54:58;;;;;;;8.02;3.50;;;;;;;;;;5023349;28;20183;-85
2023/08/20 07:57:23;;;;;;;10.05;3.55;;;;;;;;;;5017990;28;20033;-84
2023/08/20 07:59:50;;;;;;;6.45;3.35;;;;;;;;;;5019804;28;20479;-85
2023/08/20 08:02:15;;;;;;;9.25;3.65;;;;;;;;;;5028556;28;20037;-85
2023/08/20 08:04:42;;;;;;;8.15;3.30;;;;;;;;;;5003477;28;20405;-85
2023/08/20 08:07:07;;;;;;;7.93;3.33;;;;;;;;;;5015539;28;20048;-86
2023/08/20 08:09:33;;;;;;;5.63;3.00;;;;;;;;;;5023383;28;20409;-85
2023/08/20 08:11:59;;;;;;;8.70;3.42;;;;;;;;;;5020157;28;20030;-85
2023/08/20 08:14:25;;;;;;;13.05;3.30;;;;;;;;;;5026704;28;20037;-85
2023/08/20 08:16:51;;;;;;;9.65;3.20;;;;;;;;;;5031653;28;20037;-85
2023/08/20 08:19:17;;;;;;;9.02;3.03;;;;;;;;;;5020958;28;20064;-87
2023/08/20 08:21:43;;;;;;;8.68;3.20;;;;;;;;;;5022248;28;20405;-86
2023/08/20 08:24:10;;;;;;;6.93;3.20;;;;;;;;;;5032783;28;20103;-84
2023/08/20 08:26:36;;;;;;;10.40;3.10;;;;;;;;;;5032066;28;20113;-86
2023/08/20 08:29:02;;;;;;;9.43;3.05;;;;;;;;;;5024941;28;20097;-86
2023/08/20 08:31:28;;;;;;;9.68;2.85;;;;;;;;;;5023619;28;20041;-86
2023/08/20 08:33:53;;;;;;;10.80;2.83;;;;;;;;;;5008553;28;20041;-86
2023/08/20 08:36:19;;;;;;;6.78;2.95;;;;;;;;;;5015882;28;20489;-85
2023/08/20 08:38:45;;;;;;;7.25;3.08;;;;;;;;;;5022901;28;20034;-86
2023/08/20 08:41:11;;;;;;;14.85;3.10;;;;;;;;;;5028250;28;20060;-85
2023/08/20 08:43:38;;;;;;;8.30;3.35;;;;;;;;;;5011649;28;20044;-85
2023/08/20 08:46:11;;;;;;;10.35;2.90;;;;;;;;;;5020024;28;20041;-84
2023/08/20 08:48:41;;;;;;;6.93;2.75;;;;;;;;;;5026828;28;20041;-86
2023/08/20 08:51:07;;;;;;;6.60;2.88;;;;;;;;;;5029186;28;20034;-86
2023/08/20 08:53:32;;;;;;;7.03;2.70;;;;;;;;;;5024570;28;20040;-85
2023/08/20 08:55:59;;;;;;;9.57;2.90;;;;;;;;;;5022052;28;20033;-85
2023/08/20 08:58:25;;;;;;;10.90;2.80;;;;;;;;;;5019800;28;20030;-85
2023/08/20 09:00:50;;;;;;;4.72;2.85;;;;;;;;;;5026360;28;20118;-85
2023/08/20 09:03:16;;;;;;;8.73;3.00;;;;;;;;;;5021792;28;20029;-85
2023/08/20 09:05:49;;;;;;;10.90;3.10;;;;;;;;;;5021772;28;20167;-85
2023/08/20 09:08:22;;;;;;;7.60;2.88;;;;;;;;;;5012651;28;20033;-85
2023/08/20 09:10:51;;;;;;;;;;;;;;;;;;5002107;28;20528;-82
2023/08/20 09:13:16;;;;;;;11.98;2.90;;;;;;;;;;5028554;28;19920;-85
2023/08/20 09:15:42;;;;;;;8.63;2.90;;;;;;;;;;5027125;28;20508;-85
2023/08/20 09:18:11;;;;;;;6.68;2.88;;;;;;;;;;5024198;28;20046;-83
2023/08/20 09:20:37;;;;;;;7.85;2.72;;;;;;;;;;5021289;28;20412;-86
2023/08/20 09:23:04;;;;;;;10.13;2.97;;;;;;;;;;5019010;28;20056;-85
2023/08/20 09:25:29;;;;;;;7.07;2.97;;;;;;;;;;5037411;28;20042;-86
2023/08/20 09:27:55;;;;;;;9.20;3.03;;;;;;;;;;5017010;28;20120;-85
2023/08/20 09:30:21;;;;;;;6.55;2.78;;;;;;;;;;5030842;28;20042;-85
2023/08/20 09:33:07;;;;;;;7.03;2.95;;;;;;;;;;5023358;28;20519;-85
2023/08/20 09:35:33;;;;;;;8.48;2.80;;;;;;;;;;5032120;28;20424;-86
2023/08/20 09:38:04;;;;;;;10.00;2.65;;;;;;;;;;5023766;28;20077;-84
2023/08/20 09:40:30;;;;;;;8.65;2.60;;;;;;;;;;5007795;28;20084;-84
2023/08/20 09:42:57;;;;;;;11.73;2.67;;;;;;;;;;5027203;28;20037;-84
2023/08/20 09:45:28;;;;;;;8.45;2.40;;;;;;;;;;5025834;28;20041;-85
2023/08/20 09:47:56;;;;;;;7.65;2.90;;;;;;;;;;5034706;28;20553;-85
2023/08/20 09:50:23;;;;;;;10.10;2.95;;;;;;;;;;5037969;28;20046;-85
2023/08/20 09:53:07;;;;;;;11.55;2.80;;;;;;;;;;5034903;28;20056;-86
2023/08/20 09:55:37;;;;;;;8.52;2.50;;;;;;;;;;5033293;28;20056;-86
2023/08/20 09:58:03;;;;;;;7.13;2.80;;;;;;;;;;5028150;28;20068;-86
2023/08/20 10:00:30;;;;;;;7.50;3.20;;;;;;;;;;5041042;28;20057;-85
2023/08/20 10:02:56;;;;;;;6.88;2.65;;;;;;;;;;5040372;28;20094;-84
2023/08/20 10:05:23;;;;;;;6.00;2.58;;;;;;;;;;5030699;28;20076;-86
2023/08/20 10:07:49;;;;;;;8.73;2.88;;;;;;;;;;5038691;28;20044;-86
2023/08/20 10:10:16;;;;;;;10.20;2.95;;;;;;;;;;5008597;28;20049;-85
2023/08/20 10:12:44;;;;;;;7.55;2.95;;;;;;;;;;5026466;28;20044;-85
2023/08/20 10:15:12;;;;;;;11.48;3.30;;;;;;;;;;5022093;28;20033;-86
2023/08/20 10:17:41;;;;;;;8.40;3.03;;;;;;;;;;5035188;28;20076;-85
2023/08/20 10:20:10;;;;;;;8.80;3.13;;;;;;;;;;5033243;28;20036;-85
2023/08/20 10:22:40;;;;;;;9.43;3.38;;;;;;;;;;5022660;28;20041;-85
2023/08/20 10:25:22;;;;;;;9.82;3.60;;;;;;;;;;5031865;28;20383;-85
2023/08/20 10:27:47;;;;;;;7.97;3.13;;;;;;;;;;5015946;28;20041;-85
2023/08/20 10:30:18;;;;;;;9.07;2.85;;;;;;;;;;5031508;28;20049;-84
2023/08/20 10:32:47;;;;;;;8.38;3.35;;;;;;;;;;5028820;28;20048;-84
2023/08/20 10:35:15;;;;;;;8.88;3.25;;;;;;;;;;5020463;28;20038;-84
2023/08/20 10:38:04;;;;;;;11.60;3.42;;;;;;;;;;5018622;28;20017;-84
2023/08/20 10:40:57;;;;;;;11.63;3.70;;;;;;;;;;5019957;28;20045;-85
2023/08/20 10:43:34;;;;;;;8.48;3.63;;;;;;;;;;5021113;28;20068;-85
2023/08/20 10:46:22;;;;;;;8.85;3.40;;;;;;;;;;5021684;28;20037;-85
2023/08/20 10:48:51;;;;;;;8.15;3.63;;;;;;;;;;5026323;28;20460;-84
2023/08/20 10:51:19;;;;;;;7.55;3.55;;;;;;;;;;5015733;28;20025;-84
2023/08/20 10:54:07;;;;;;;9.98;3.80;;;;;;;;;;5021860;28;20045;-85
2023/08/20 10:56:41;;;;;;;10.57;3.70;;;;;;;;;;5026448;28;20072;-84
2023/08/20 10:59:27;;;;;;;15.23;3.33;;;;;;;;;;5013297;28;20078;-84
2023/08/20 11:01:54;;;;;;;6.82;3.78;;;;;;;;;;5006656;28;20042;-84
2023/08/20 11:04:21;;;;;;;8.98;3.45;;;;;;;;;;5018108;28;20579;-86
2023/08/20 11:06:52;;;;;;;10.40;3.45;;;;;;;;;;5024732;28;20033;-84
2023/08/20 11:09:18;;;;;;;7.97;3.95;;;;;;;;;;5016945;28;20038;-84
2023/08/20 11:11:44;;;;;;;8.82;3.92;;;;;;;;;;5021137;28;20041;-84
2023/08/20 11:14:14;;;;;;;8.57;3.80;;;;;;;;;;5018401;28;20049;-84
2023/08/20 11:16:41;;;;;;;5.68;3.72;;;;;;;;;;5016870;28;20405;-84
2023/08/20 11:19:09;;;;;;;7.00;4.00;;;;;;;;;;5013841;28;20041;-84
2023/08/20 11:21:37;;;;;;;16.48;3.75;;;;;;;;;;5020387;28;20040;-86
2023/08/20 11:24:03;;;;;;;7.18;3.83;;;;;;;;;;5017201;28;20068;-84
2023/08/20 11:26:29;;;;;;;5.40;3.33;;;;;;;;;;5016013;28;20316;-83
2023/08/20 11:28:54;;;;;;;8.00;3.80;;;;;;;;;;5027259;28;20642;-84
2023/08/20 11:31:20;;;;;;;5.88;3.60;;;;;;;;;;5025343;28;20038;-84
2023/08/20 11:33:47;;;;;;;9.70;3.60;;;;;;;;;;5019906;28;20091;-84
2023/08/20 11:36:16;;;;;;;8.02;3.88;;;;;;;;;;5025245;28;20424;-84
2023/08/20 11:38:41;;;;;;;7.75;3.53;;;;;;;;;;5020539;28;20042;-85
2023/08/20 11:41:07;;;;;;;5.85;3.40;;;;;;;;;;5012168;28;20052;-85
2023/08/20 11:43:33;;;;;;;5.70;3.40;;;;;;;;;;5029398;28;20049;-84
2023/08/20 11:45:58;;;;;;;8.05;3.55;;;;;;;;;;5021228;28;20050;-84
2023/08/20 11:48:24;;;;;;;9.43;3.55;;;;;;;;;;5021082;28;20033;-85
2023/08/20 11:50:50;;;;;;;9.25;3.90;;;;;;;;;;5024556;28;20048;-85
2023/08/20 11:53:22;;;;;;;8.32;3.75;;;;;;;;;;5020178;28;20042;-84
2023/08/20 11:55:47;;;;;;;5.90;3.70;;;;;;;;;;5026639;28;20119;-85
2023/08/20 11:58:13;;;;;;;5.28;3.50;;;;;;;;;;5022826;28;20513;-85
2023/08/20 12:00:40;;;;;;;9.70;3.47;;;;;;;;;;5026708;28;20038;-86
2023/08/20 12:03:05;;;;;;;6.45;3.50;;;;;;;;;;5035640;28;20041;-85
2023/08/20 12:05:31;;;;;;;7.53;3.30;;;;;;;;;;5028245;28;20045;-85
2023/08/20 12:07:58;;;;;;;7.25;3.40;;;;;;;;;;5022443;28;20092;-84
2023/08/20 12:10:25;;;;;;;8.57;3.70;;;;;;;;;;5024308;28;20049;-85
2023/08/20 12:12:52;;;;;;;6.90;3.58;;;;;;;;;;5023482;28;20106;-84
2023/08/20 12:15:18;;;;;;;6.03;3.38;;;;;;;;;;5027111;28;20041;-85
2023/08/20 12:17:57;;;;;;;5.40;3.60;;;;;;;;;;5030137;28;20030;-85
2023/08/20 12:20:23;;;;;;;8.65;3.50;;;;;;;;;;5023748;28;20402;-86
2023/08/20 12:22:49;;;;;;;5.93;3.45;;;;;;;;;;4997894;28;20045;-85
2023/08/20 12:25:14;;;;;;;6.78;3.50;;;;;;;;;;5024294;28;20072;-86
2023/08/20 12:27:41;;;;;;;8.50;3.22;;;;;;;;;;5031363;28;20033;-84
2023/08/20 12:30:07;;;;;;;4.45;2.80;;;;;;;;;;5026984;28;20052;-85
2023/08/20 12:32:32;;;;;;;7.60;2.92;;;;;;;;;;5019973;28;20095;-86
2023/08/20 12:34:58;;;;;;;9.52;3.13;;;;;;;;;;5014341;28;20049;-84
2023/08/20 12:37:23;;;;;;;7.93;3.42;;;;;;;;;;5031089;28;20112;-84
2023/08/20 12:39:49;;;;;;;8.55;3.42;;;;;;;;;;5026181;28;20449;-85
2023/08/20 12:42:14;;;;;;;7.18;3.20;;;;;;;;;;5025220;28;20036;-86
2023/08/20 12:44:40;;;;;;;5.47;3.40;;;;;;;;;;5019951;28;20053;-84
2023/08/20 12:47:05;;;;;;;7.10;3.40;;;;;;;;;;5021876;28;20029;-86
2023/08/20 12:49:31;;;;;;;6.03;3.20;;;;;;;;;;5025967;28;20556;-86
2023/08/20 12:51:56;;;;;;;6.00;3.60;;;;;;;;;;5029226;28;20112;-86
2023/08/20 12:54:22;;;;;;;4.85;3.13;;;;;;;;;;5024007;28;20048;-85
2023/08/20 12:56:47;;;;;;;7.43;3.33;;;;;;;;;;5023553;28;20048;-86
2023/08/20 12:59:13;;;;;;;4.97;3.20;;;;;;;;;;5028002;28;20038;-86
2023/08/20 13:01:39;;;;;;;4.40;3.00;;;;;;;;;;5029032;28;20029;-84
2023/08/20 13:04:05;;;;;;;6.75;3.30;;;;;;;;;;5028322;28;20045;-84
2023/08/20 13:06:30;;;;;;;7.10;3.40;;;;;;;;;;5006145;28;20120;-84
2023/08/20 13:08:56;;;;;;;8.10;3.67;;;;;;;;;;5023455;28;20065;-86
2023/08/20 13:11:24;;;;;;;6.40;3.75;;;;;;;;;;5012381;28;20029;-85
2023/08/20 13:13:49;;;;;;;10.93;5.50;;;;;;;;;;5025416;28;20064;-84
2023/08/20 13:16:15;;;;;;;7.50;3.35;;;;;;;;;;5021874;28;20101;-86
2023/08/20 13:18:41;;;;;;;8.98;5.78;;;;;;;;;;5022218;28;20071;-86
2023/08/20 13:21:08;;;;;;;5.55;3.47;;;;;;;;;;5012095;28;20461;-86
2023/08/20 13:23:33;;;;;;;6.15;3.97;;;;;;;;;;5024089;28;20664;-84
2023/08/20 13:25:59;;;;;;;7.38;4.00;;;;;;;;;;5028762;28;20092;-86
2023/08/20 13:28:24;;;;;;;10.18;3.60;;;;;;;;;;5023974;28;20089;-86
2023/08/20 13:30:50;;;;;;;5.22;3.55;;;;;;;;;;5027107;28;20075;-86
2023/08/20 13:33:15;;;;;;;7.22;3.80;;;;;;;;;;5006002;28;20030;-86
2023/08/20 13:35:41;;;;;;;6.55;3.50;;;;;;;;;;5037616;28;20393;-86
2023/08/20 13:38:07;;;;;;;6.93;3.88;;;;;;;;;;5013552;28;20037;-86
2023/08/20 13:40:32;;;;;;;8.07;3.67;;;;;;;;;;5026636;28;20049;-86
2023/08/20 13:43:01;;;;;;;6.65;4.10;;;;;;;;;;5032442;28;20061;-86
2023/08/20 13:45:26;;;;;;;4.75;3.22;;;;;;;;;;5030660;28;20524;-86
2023/08/20 13:47:52;;;;;;;6.15;3.55;;;;;;;;;;5021920;28;20029;-86
2023/08/20 13:50:17;;;;;;;5.43;3.70;;;;;;;;;;5031401;28;20049;-86
2023/08/20 13:52:43;;;;;;;8.07;4.80;;;;;;;;;;5028160;28;20053;-86
2023/08/20 13:55:08;;;;;;;5.85;4.00;;;;;;;;;;5015136;28;20097;-87
2023/08/20 13:57:34;;;;;;;6.45;3.75;;;;;;;;;;5010733;28;20111;-86
2023/08/20 14:00:00;;;;;;;4.28;3.55;;;;;;;;;;5021039;28;20034;-86
2023/08/20 14:02:25;;;;;;;8.20;4.07;;;;;;;;;;5031909;28;20555;-85
2023/08/20 14:04:51;;;;;;;6.10;3.88;;;;;;;;;;5029748;28;20038;-86
2023/08/20 14:07:17;;;;;;;6.18;3.85;;;;;;;;;;5039486;28;20071;-87
2023/08/20 14:09:43;;;;;;;4.63;3.80;;;;;;;;;;5036868;28;20045;-86
2023/08/20 14:12:09;;;;;;;6.38;4.18;;;;;;;;;;5027211;28;20030;-87
2023/08/20 14:14:34;;;;;;;5.75;4.28;;;;;;;;;;5019989;28;20038;-87
2023/08/20 14:16:59;;;;;;;5.47;3.90;;;;;;;;;;5012892;28;20032;-86
2023/08/20 14:19:25;;;;;;;5.07;3.88;;;;;;;;;;5019368;28;20037;-86
2023/08/20 14:21:51;;;;;;;5.53;3.88;;;;;;;;;;5016904;28;20038;-86
2023/08/20 14:24:16;;;;;;;6.30;4.00;;;;;;;;;;5032820;28;20034;-86
2023/08/20 14:26:42;;;;;;;7.53;4.30;;;;;;;;;;5027880;28;20040;-86
2023/08/20 14:29:07;;;;;;;6.25;4.20;;;;;;;;;;5027362;28;20084;-87
2023/08/20 14:31:33;;;;;;;5.55;4.07;;;;;;;;;;5034505;28;20063;-86
2023/08/20 14:34:00;;;;;;;8.00;3.90;;;;;;;;;;5022935;28;20057;-86
2023/08/20 14:36:25;;;;;;;5.45;4.10;;;;;;;;;;5015095;28;20079;-85
2023/08/20 14:38:51;;;;;;;6.32;4.10;;;;;;;;;;5029687;28;20026;-86
2023/08/20 14:41:16;;;;;;;9.93;4.00;;;;;;;;;;5040250;28;20220;-86